This is the latest recevied weather packets stored in our database for station/object JF2ZGN-13. If no packets are shown the sender has not sent any weather packets the latest 10 day(s).
| Time | Temp. | Humidity | Pressure | Rain* | Wind** | Luminosity | Snow |
|---|---|---|---|---|---|---|---|
| 1787764683 | 22.78° C | 64% | 907.7 hPa | 0 mm | - | - | - |
| 1787764083 | 22.78° C | 63% | 907.8 hPa | 0 mm | - | - | - |
| 1787763482 | 22.78° C | 61% | 907.9 hPa | 0 mm | - | - | - |
| 1787762882 | 23.33° C | 61% | 907.9 hPa | 0 mm | - | - | - |
| 1787762281 | 22.78° C | 64% | 907.8 hPa | 0 mm | - | - | - |
| 1787761681 | 21.67° C | 71% | 908 hPa | 0 mm | - | - | - |
| 1787761080 | 21.67° C | 76% | 908.2 hPa | 0 mm | - | - | - |
| 1787760480 | 21.67° C | 75% | 908.5 hPa | 0 mm | - | - | - |
| 1787759879 | 21.67° C | 79% | 908.9 hPa | 0 mm | - | - | - |
| 1787759279 | 21.67° C | 81% | 908.8 hPa | 0 mm | - | - | - |
| 1787758678 | 21.67° C | 81% | 908.8 hPa | 0 mm | - | - | - |
| 1787758078 | 22.22° C | 75% | 909 hPa | 0 mm | - | - | - |
| 1787757478 | 23.33° C | 56% | 908.8 hPa | 0 mm | - | - | - |
| 1787756877 | 24.44° C | 46% | 908.6 hPa | 0 mm | - | - | - |
| 1787756277 | 25° C | 42% | 908.4 hPa | 0 mm | - | - | - |
| 1787755676 | 25° C | 45% | 908.2 hPa | 0 mm | - | - | - |
| 1787755076 | 25° C | 48% | 908.5 hPa | 0 mm | - | - | - |
| 1787754475 | 24.44° C | 45% | 908.4 hPa | 0 mm | - | - | - |
| 1787753875 | 24.44° C | 48% | 908.5 hPa | 0 mm | - | - | - |
| 1787753274 | 23.89° C | 50% | 908.5 hPa | 0 mm | - | - | - |
| 1787752675 | 23.89° C | 49% | 908.5 hPa | 0 mm | - | - | - |
| 1787752074 | 24.44° C | 47% | 908.5 hPa | 0 mm | - | - | - |
| 1787751473 | 23.89° C | 48% | 908.6 hPa | 0 mm | - | - | - |
| 1787750872 | 24.44° C | 47% | 908.7 hPa | 0 mm | - | - | - |
| 1787750272 | 23.89° C | 48% | 908.8 hPa | 0 mm | - | - | - |
* Rain since midnight (hover to see other rain measurements)
** Current wind speed in m/s (hover to see current wind gust speed)